Abington, Indiana
Current Conditions -  °F | °C
As of 9:53 AM on Monday 24 Nov 2014 (Local Time) from KMIE Reporting Station
Light Rain Light Rain  
Wind Chill: 55°   Ceiling: 2300
Heat Index: 55°   Visibility: 10mi
Dew Point: 50°   Wind: 25mph
Humidity: 83%   Direction: 250°WSW
Pressure: 29.23"   Gusts: 38mph
Location:  39.7862°N, 85.0229°W
Report Text: KMIE 241453Z 25022G33KT 10SM -RA SCT018 BKN023 OVC060 13/10 A2923 RMK AO2 PK WND 25033/1453 RAB42 SLP894 P0000 60002 T01280100 53019
Loading
Personal Weather Stations






























Interactive Weather Map New forecast layout! Learn more

10-Day Weather Forecast

Advertisements
Track Severe Weather on mobile